Time;durP1;ratioP1;P1;durP2;ratioP2;P2;SDS_P1;SDS_P2;PMS_P1;PMS_P2;Temp;Humidity;BMP_temperature;BMP_pressure;BME280_temperature;BME280_humidity;BME280_pressure;Samples;Min_cycle;Max_cycle;Signal;HPM_P1;HPM_P2
2021/07/07 00:00:58;;;;;;;1.92;0.75;;;17.20;99.90;;;;;;5044717;28;20080;-68
2021/07/07 00:03:24;;;;;;;1.48;1.00;;;17.10;99.90;;;;;;5044420;28;20030;-69
2021/07/07 00:05:49;;;;;;;1.38;0.93;;;17.00;99.90;;;;;;5044579;28;20048;-68
2021/07/07 00:08:15;;;;;;;2.53;1.35;;;17.10;99.90;;;;;;5044405;28;20041;-67
2021/07/07 00:10:40;;;;;;;0.60;0.50;;;17.10;99.90;;;;;;5044239;28;20471;-69
2021/07/07 00:13:06;;;;;;;3.55;1.60;;;17.10;99.90;;;;;;5042655;28;20037;-68
2021/07/07 00:15:33;;;;;;;1.10;0.80;;;17.00;99.90;;;;;;5044755;28;20117;-68
2021/07/07 00:18:10;;;;;;;3.80;1.40;;;17.00;99.90;;;;;;5029931;28;20025;-68
2021/07/07 00:20:43;;;;;;;4.60;1.13;;;17.00;99.90;;;;;;5029024;28;20022;-69
2021/07/07 00:23:08;;;;;;;1.20;0.77;;;17.00;99.90;;;;;;5028511;28;20029;-68
2021/07/07 00:25:34;;;;;;;2.35;0.80;;;16.90;99.90;;;;;;5028758;28;20022;-68
2021/07/07 00:28:00;;;;;;;1.55;0.90;;;16.90;99.90;;;;;;5028726;28;20045;-69
2021/07/07 00:30:27;;;;;;;1.92;1.10;;;16.90;99.90;;;;;;5028605;28;20110;-68
2021/07/07 00:32:55;;;;;;;4.07;0.98;;;16.80;99.90;;;;;;5028465;28;20093;-69
2021/07/07 00:35:21;;;;;;;1.13;0.75;;;16.80;99.90;;;;;;5028491;28;20034;-68
2021/07/07 00:37:46;;;;;;;0.95;0.85;;;16.70;99.90;;;;;;5031542;28;20032;-68
2021/07/07 00:40:13;;;;;;;0.90;0.70;;;16.60;99.90;;;;;;5046893;28;20061;-68
2021/07/07 00:42:39;;;;;;;1.45;0.95;;;16.60;99.90;;;;;;5048229;28;20030;-68
2021/07/07 00:45:06;;;;;;;4.38;1.55;;;16.60;99.90;;;;;;5046863;28;20040;-68
2021/07/07 00:47:32;;;;;;;2.10;1.40;;;16.50;99.90;;;;;;5048126;28;20037;-69
2021/07/07 00:49:58;;;;;;;4.05;1.20;;;16.50;99.90;;;;;;5048186;28;20034;-68
2021/07/07 00:52:23;;;;;;;2.63;1.20;;;16.40;99.90;;;;;;5047831;28;20037;-68
2021/07/07 00:54:49;;;;;;;3.72;1.38;;;16.40;99.90;;;;;;5047995;28;20025;-68
2021/07/07 00:57:16;;;;;;;1.40;0.93;;;16.40;99.90;;;;;;5047667;28;20022;-69
2021/07/07 00:59:45;;;;;;;1.38;0.90;;;16.30;99.90;;;;;;5047659;28;20025;-70
2021/07/07 01:02:11;;;;;;;1.77;1.05;;;16.30;99.90;;;;;;5034443;28;20040;-70
2021/07/07 01:04:37;;;;;;;2.13;0.98;;;16.30;99.90;;;;;;5027952;28;20391;-70
2021/07/07 01:07:03;;;;;;;3.88;1.25;;;16.30;99.90;;;;;;5027838;28;20562;-68
2021/07/07 01:09:29;;;;;;;3.78;1.45;;;16.30;99.90;;;;;;5027901;28;20507;-69
2021/07/07 01:11:54;;;;;;;2.30;1.30;;;16.30;99.90;;;;;;5027154;28;20054;-68
2021/07/07 01:14:20;;;;;;;1.25;1.13;;;16.20;99.90;;;;;;5027262;28;20030;-70
2021/07/07 01:16:46;;;;;;;8.52;1.20;;;16.20;99.90;;;;;;5027378;28;20041;-68
2021/07/07 01:19:13;;;;;;;4.53;0.95;;;16.00;99.90;;;;;;5027390;28;20036;-69
2021/07/07 01:21:49;;;;;;;1.27;1.00;;;16.10;99.90;;;;;;5026976;28;20033;-69
2021/07/07 01:24:16;;;;;;;2.28;0.98;;;16.00;99.90;;;;;;5026512;28;20037;-69
2021/07/07 01:26:44;;;;;;;1.73;1.00;;;15.90;99.90;;;;;;5026951;28;20096;-69
2021/07/07 01:29:10;;;;;;;0.88;0.77;;;15.90;99.90;;;;;;5027054;28;20388;-67
2021/07/07 01:31:39;;;;;;;2.45;1.38;;;15.90;99.90;;;;;;5027154;28;20084;-68
2021/07/07 01:34:06;;;;;;;1.33;0.95;;;15.80;99.90;;;;;;5027352;28;20480;-68
2021/07/07 01:36:34;;;;;;;1.83;0.88;;;15.80;99.90;;;;;;5026986;28;20407;-70
2021/07/07 01:39:01;;;;;;;0.95;0.80;;;15.80;99.90;;;;;;5027365;28;20022;-69
2021/07/07 01:41:27;;;;;;;3.22;0.73;;;15.80;99.90;;;;;;5027157;28;20026;-69
2021/07/07 01:43:52;;;;;;;2.28;0.65;;;15.70;99.90;;;;;;5027193;28;20041;-68
2021/07/07 01:46:18;;;;;;;1.00;0.80;;;15.70;99.90;;;;;;5027015;28;20034;-68
2021/07/07 01:48:44;;;;;;;1.10;0.60;;;15.60;99.90;;;;;;5026761;28;20440;-69
2021/07/07 01:51:09;;;;;;;1.25;0.85;;;15.60;99.90;;;;;;5026766;28;20030;-68
2021/07/07 01:53:35;;;;;;;4.47;1.10;;;15.50;99.90;;;;;;5027179;28;20033;-70
2021/07/07 01:56:01;;;;;;;1.55;0.70;;;15.60;99.90;;;;;;5026989;28;20034;-68
2021/07/07 01:58:26;;;;;;;2.05;1.13;;;15.50;99.90;;;;;;5026874;28;20025;-69
2021/07/07 02:00:54;;;;;;;1.65;0.95;;;15.60;99.90;;;;;;5026747;28;20037;-68
2021/07/07 02:03:19;;;;;;;1.75;1.00;;;15.50;99.90;;;;;;5026589;28;20022;-68
2021/07/07 02:05:45;;;;;;;1.45;0.80;;;15.50;99.90;;;;;;5026751;28;20387;-67
2021/07/07 02:08:12;;;;;;;0.95;0.73;;;15.50;99.90;;;;;;5026606;28;20049;-69
2021/07/07 02:10:38;;;;;;;1.42;1.20;;;15.50;99.90;;;;;;5026440;28;20472;-68
2021/07/07 02:13:08;;;;;;;2.13;0.95;;;15.40;99.90;;;;;;5026712;28;20048;-69
2021/07/07 02:15:36;;;;;;;1.27;0.70;;;15.40;99.90;;;;;;5026590;28;20037;-68
2021/07/07 02:18:04;;;;;;;3.45;1.10;;;15.40;99.90;;;;;;5026526;28;20053;-69
2021/07/07 02:20:32;;;;;;;2.08;0.90;;;15.40;99.90;;;;;;5026696;28;20030;-68
2021/07/07 02:22:58;;;;;;;2.03;0.85;;;15.40;99.90;;;;;;5026646;28;20040;-69
2021/07/07 02:25:30;;;;;;;0.52;0.50;;;15.40;99.90;;;;;;5026261;28;20054;-69
2021/07/07 02:27:57;;;;;;;1.30;0.68;;;15.30;99.90;;;;;;5026232;28;20117;-70
2021/07/07 02:30:26;;;;;;;1.85;0.90;;;15.30;99.90;;;;;;5026205;28;20034;-69
2021/07/07 02:32:53;;;;;;;1.70;0.90;;;15.30;99.90;;;;;;5026098;28;20041;-70
2021/07/07 02:35:23;;;;;;;3.17;1.08;;;15.30;99.90;;;;;;5025999;28;20030;-69
2021/07/07 02:37:50;;;;;;;0.70;0.60;;;15.20;99.90;;;;;;5025932;28;20081;-68
2021/07/07 02:40:17;;;;;;;2.17;0.95;;;15.20;99.90;;;;;;5025975;28;20018;-68
2021/07/07 02:42:43;;;;;;;3.45;1.10;;;15.10;99.90;;;;;;5025404;28;20030;-69
2021/07/07 02:45:11;;;;;;;2.47;0.90;;;15.10;99.90;;;;;;5025955;28;20116;-68
2021/07/07 02:47:37;;;;;;;4.65;1.25;;;15.00;99.90;;;;;;5025918;28;20037;-69
2021/07/07 02:50:06;;;;;;;1.90;0.98;;;15.00;99.90;;;;;;5025796;28;20026;-68
2021/07/07 02:52:31;;;;;;;0.93;0.40;;;15.00;99.90;;;;;;5026083;28;20095;-67
2021/07/07 02:54:57;;;;;;;1.05;0.60;;;14.90;99.90;;;;;;5025852;28;20072;-68
2021/07/07 02:57:22;;;;;;;1.63;0.70;;;14.90;99.90;;;;;;5025669;28;20025;-69
2021/07/07 02:59:48;;;;;;;8.95;1.23;;;14.80;99.90;;;;;;5025675;28;20064;-68
2021/07/07 03:02:14;;;;;;;3.20;0.90;;;14.90;99.90;;;;;;5025603;28;20542;-67
2021/07/07 03:04:39;;;;;;;4.93;1.55;;;14.80;99.90;;;;;;5025434;28;20079;-70
2021/07/07 03:07:05;;;;;;;1.38;0.70;;;14.80;99.90;;;;;;5025568;28;20046;-69
2021/07/07 03:09:31;;;;;;;1.75;1.00;;;14.80;99.90;;;;;;5025758;28;20068;-68
2021/07/07 03:11:57;;;;;;;1.52;0.70;;;14.70;99.90;;;;;;5025492;28;20048;-68
2021/07/07 03:14:23;;;;;;;2.83;1.08;;;14.70;99.90;;;;;;5025563;28;20038;-69
2021/07/07 03:16:49;;;;;;;1.33;0.80;;;14.70;99.90;;;;;;5025138;28;20033;-68
2021/07/07 03:19:14;;;;;;;0.43;0.43;;;14.70;99.90;;;;;;5025178;28;20463;-68
2021/07/07 03:21:40;;;;;;;1.58;0.80;;;14.80;99.90;;;;;;5025499;28;20034;-67
2021/07/07 03:24:06;;;;;;;0.73;0.63;;;14.70;99.90;;;;;;5025353;28;20030;-68
2021/07/07 03:26:31;;;;;;;2.25;0.90;;;14.70;99.90;;;;;;5025475;28;20030;-67
2021/07/07 03:28:57;;;;;;;4.95;1.25;;;14.60;99.90;;;;;;5025101;28;20084;-68
2021/07/07 03:31:23;;;;;;;1.75;1.08;;;14.50;99.90;;;;;;5025277;28;20026;-68
2021/07/07 03:33:48;;;;;;;0.65;0.63;;;14.60;99.90;;;;;;5024993;28;20038;-68
2021/07/07 03:36:14;;;;;;;1.33;0.80;;;14.50;99.90;;;;;;5025323;28;20034;-68
2021/07/07 03:38:39;;;;;;;1.50;1.00;;;14.50;99.90;;;;;;5025072;28;20033;-69
2021/07/07 03:41:05;;;;;;;2.05;0.85;;;14.50;99.90;;;;;;5025212;28;20030;-68
2021/07/07 03:43:31;;;;;;;3.50;1.17;;;14.40;99.90;;;;;;5025258;28;20084;-68
2021/07/07 03:45:56;;;;;;;1.70;0.75;;;14.40;99.90;;;;;;5025144;28;20041;-69
2021/07/07 03:48:22;;;;;;;2.28;1.15;;;14.40;99.90;;;;;;5024889;28;20037;-68
2021/07/07 03:50:47;;;;;;;2.17;1.23;;;14.40;99.90;;;;;;5024901;28;20026;-67
2021/07/07 03:53:13;;;;;;;1.30;1.02;;;14.40;99.90;;;;;;5024791;28;20041;-68
2021/07/07 03:55:39;;;;;;;2.42;1.02;;;14.50;99.90;;;;;;5025167;28;20030;-69
2021/07/07 03:58:05;;;;;;;5.45;1.00;;;14.40;99.90;;;;;;5024980;28;20379;-69
2021/07/07 04:00:32;;;;;;;3.63;1.45;;;14.40;99.90;;;;;;5030147;28;20032;-68
2021/07/07 04:02:59;;;;;;;1.55;1.25;;;14.50;99.90;;;;;;5044824;28;20379;-69
2021/07/07 04:05:25;;;;;;;5.13;1.20;;;14.40;99.90;;;;;;5044178;28;20033;-68
2021/07/07 04:07:51;;;;;;;3.03;1.30;;;14.50;99.90;;;;;;5044615;28;20038;-69
2021/07/07 04:10:18;;;;;;;2.70;1.42;;;14.50;99.90;;;;;;5044615;28;20594;-67
2021/07/07 04:12:45;;;;;;;1.00;0.75;;;14.50;99.90;;;;;;5043025;28;20454;-68
2021/07/07 04:15:12;;;;;;;4.40;1.48;;;14.50;99.90;;;;;;5044318;28;20028;-69
2021/07/07 04:17:39;;;;;;;1.73;1.08;;;14.50;99.90;;;;;;5044474;28;20029;-70
2021/07/07 04:20:08;;;;;;;1.50;1.35;;;14.50;99.90;;;;;;5044462;28;20022;-69
2021/07/07 04:22:35;;;;;;;1.48;1.10;;;14.50;99.90;;;;;;5044521;28;20059;-69
2021/07/07 04:25:00;;;;;;;3.38;1.40;;;14.50;99.90;;;;;;5044584;28;20037;-69
2021/07/07 04:27:26;;;;;;;4.85;1.60;;;14.50;99.90;;;;;;5044388;28;20117;-70
2021/07/07 04:29:51;;;;;;;1.65;1.10;;;14.50;99.90;;;;;;5029101;28;20073;-69
2021/07/07 04:32:17;;;;;;;3.28;1.30;;;14.50;99.90;;;;;;5037697;28;20034;-69
2021/07/07 04:34:44;;;;;;;7.40;1.52;;;14.50;99.90;;;;;;5044178;28;20108;-68
2021/07/07 04:37:10;;;;;;;1.45;1.35;;;14.50;99.90;;;;;;5043823;28;20047;-68
2021/07/07 04:39:36;;;;;;;3.50;1.30;;;14.60;99.90;;;;;;5044282;28;20048;-71
2021/07/07 04:42:03;;;;;;;1.83;1.23;;;14.50;99.90;;;;;;5044490;28;20029;-69
2021/07/07 04:44:28;;;;;;;1.98;1.00;;;14.60;99.90;;;;;;5038813;28;20376;-68
2021/07/07 04:46:54;;;;;;;3.70;1.20;;;14.50;99.90;;;;;;5024259;28;20141;-69
2021/07/07 04:49:19;;;;;;;4.03;1.42;;;14.60;99.90;;;;;;5024161;28;20033;-70
2021/07/07 04:51:45;;;;;;;2.25;0.98;;;14.50;99.90;;;;;;5024607;28;20029;-68
2021/07/07 04:54:11;;;;;;;4.45;1.52;;;14.50;99.90;;;;;;5022781;28;20033;-70
2021/07/07 04:56:36;;;;;;;2.15;1.02;;;14.50;99.90;;;;;;5024371;28;20045;-70
2021/07/07 04:59:02;;;;;;;2.25;0.95;;;14.50;99.90;;;;;;5029856;28;20029;-69
2021/07/07 05:01:28;;;;;;;1.67;1.05;;;14.60;99.90;;;;;;5034801;28;20068;-69
2021/07/07 05:03:53;;;;;;;1.35;0.90;;;14.70;99.90;;;;;;5024886;28;20041;-69
2021/07/07 05:06:19;;;;;;;5.85;1.20;;;14.70;99.90;;;;;;5041917;28;20030;-69
2021/07/07 05:08:44;;;;;;;3.50;1.40;;;14.80;99.90;;;;;;5027755;28;20044;-71
2021/07/07 05:11:11;;;;;;;11.02;1.40;;;14.80;99.90;;;;;;5027428;28;20053;-70
2021/07/07 05:13:37;;;;;;;4.70;1.23;;;14.90;99.90;;;;;;5027820;28;20033;-70
2021/07/07 05:16:03;;;;;;;1.02;0.80;;;15.00;99.90;;;;;;5027806;28;20026;-70
2021/07/07 05:18:30;;;;;;;13.65;1.50;;;15.00;99.90;;;;;;5027645;28;20033;-67
2021/07/07 05:20:56;;;;;;;1.60;1.20;;;15.10;99.90;;;;;;5027565;28;20542;-69
2021/07/07 05:23:22;;;;;;;6.55;1.60;;;15.10;99.90;;;;;;5026203;28;20030;-69
2021/07/07 05:25:48;;;;;;;3.75;1.45;;;15.10;99.90;;;;;;5027494;28;20034;-70
2021/07/07 05:28:14;;;;;;;1.85;1.15;;;15.10;99.90;;;;;;5027209;28;20038;-70
2021/07/07 05:30:40;;;;;;;1.67;1.13;;;15.20;99.90;;;;;;5027438;28;20037;-69
2021/07/07 05:33:08;;;;;;;1.85;1.02;;;15.20;99.90;;;;;;5026925;28;20396;-71
2021/07/07 05:35:34;;;;;;;1.45;1.02;;;15.20;99.90;;;;;;5027324;28;20089;-72
2021/07/07 05:38:00;;;;;;;3.47;1.25;;;15.30;99.90;;;;;;5026054;28;20034;-71
2021/07/07 05:40:26;;;;;;;4.93;1.25;;;15.30;99.90;;;;;;5026886;28;20094;-71
2021/07/07 05:42:52;;;;;;;2.45;1.17;;;15.30;99.90;;;;;;5027280;28;20025;-67
2021/07/07 05:45:20;;;;;;;9.38;1.45;;;15.30;99.90;;;;;;5027084;28;20046;-71
2021/07/07 05:47:45;;;;;;;2.90;1.75;;;15.30;99.90;;;;;;5026411;28;20129;-67
2021/07/07 05:50:11;;;;;;;7.03;1.52;;;15.30;99.90;;;;;;5026798;28;20025;-70
2021/07/07 05:52:37;;;;;;;3.75;1.15;;;15.40;99.90;;;;;;5027146;28;20026;-70
2021/07/07 05:55:04;;;;;;;1.48;1.00;;;15.50;99.90;;;;;;5026952;28;20026;-70
2021/07/07 05:57:39;;;;;;;2.42;1.50;;;15.50;99.90;;;;;;5027226;28;20040;-69
2021/07/07 06:00:09;;;;;;;1.67;1.20;;;15.60;99.90;;;;;;5027085;28;20049;-70
2021/07/07 06:02:36;;;;;;;1.98;1.02;;;15.60;99.90;;;;;;5040369;28;20017;-67
2021/07/07 06:05:03;;;;;;;2.17;1.23;;;15.70;99.90;;;;;;5036162;28;20072;-68
2021/07/07 06:07:29;;;;;;;2.05;0.80;;;15.80;99.90;;;;;;5026461;28;20056;-68
2021/07/07 06:09:55;;;;;;;0.85;0.65;;;15.90;99.90;;;;;;5026581;28;20026;-67
2021/07/07 06:12:21;;;;;;;0.85;0.75;;;16.00;99.90;;;;;;5026015;28;20045;-73
2021/07/07 06:14:46;;;;;;;6.00;1.58;;;16.10;99.90;;;;;;5026769;28;20057;-69
2021/07/07 06:17:12;;;;;;;2.65;1.08;;;16.10;99.90;;;;;;5026610;28;20033;-66
2021/07/07 06:19:38;;;;;;;2.65;1.20;;;16.10;99.90;;;;;;5026215;28;20030;-69
2021/07/07 06:22:03;;;;;;;1.38;0.93;;;16.10;99.90;;;;;;5026371;28;20033;-70
2021/07/07 06:24:29;;;;;;;1.35;0.77;;;16.20;99.90;;;;;;5026580;28;20054;-68
2021/07/07 06:26:55;;;;;;;5.10;1.08;;;16.30;99.90;;;;;;5026235;28;20052;-69
2021/07/07 06:29:21;;;;;;;5.38;1.23;;;16.20;99.90;;;;;;5024695;28;20032;-66
2021/07/07 06:31:46;;;;;;;2.22;1.08;;;16.30;99.90;;;;;;5026319;28;20034;-68
2021/07/07 06:34:12;;;;;;;1.73;1.00;;;16.40;99.90;;;;;;5026141;28;20375;-71
2021/07/07 06:36:39;;;;;;;2.63;1.10;;;16.40;99.90;;;;;;5026430;28;20026;-71
2021/07/07 06:39:05;;;;;;;3.15;1.27;;;16.50;99.90;;;;;;5026131;28;20026;-70
2021/07/07 06:41:32;;;;;;;1.85;1.00;;;16.60;99.90;;;;;;5026283;28;20393;-71
2021/07/07 06:43:58;;;;;;;3.00;1.15;;;16.70;99.90;;;;;;5026016;28;20026;-71
2021/07/07 06:46:24;;;;;;;6.63;1.58;;;16.80;99.90;;;;;;5026115;28;20106;-68
2021/07/07 06:48:50;;;;;;;5.22;1.30;;;16.90;99.90;;;;;;5028548;28;20049;-72
2021/07/07 06:51:16;;;;;;;2.92;0.93;;;16.90;99.90;;;;;;5041747;28;20029;-69
2021/07/07 06:53:42;;;;;;;1.90;1.10;;;17.00;99.90;;;;;;5033958;28;20033;-68
2021/07/07 06:56:09;;;;;;;3.67;1.15;;;17.20;99.90;;;;;;5026257;28;20026;-71
2021/07/07 06:58:35;;;;;;;1.52;0.80;;;17.20;99.90;;;;;;5024560;28;20038;-69
2021/07/07 07:01:01;;;;;;;2.92;1.17;;;17.30;99.90;;;;;;5024392;28;20069;-70
2021/07/07 07:03:26;;;;;;;1.35;0.93;;;17.40;99.90;;;;;;5023655;28;20112;-71
2021/07/07 07:05:52;;;;;;;1.00;0.75;;;17.50;99.90;;;;;;5025244;28;20165;-68
2021/07/07 07:08:18;;;;;;;8.40;0.98;;;17.60;99.90;;;;;;5025099;28;20038;-71
2021/07/07 07:10:45;;;;;;;1.33;0.95;;;17.70;99.90;;;;;;5035878;28;20034;-70
2021/07/07 07:13:12;;;;;;;2.08;0.77;;;17.70;99.90;;;;;;5030311;28;20029;-71
2021/07/07 07:15:42;;;;;;;1.73;1.05;;;17.80;99.90;;;;;;5044814;28;20025;-72
2021/07/07 07:18:08;;;;;;;1.15;0.90;;;17.90;99.90;;;;;;5040876;28;20029;-70
2021/07/07 07:20:34;;;;;;;4.25;1.10;;;18.00;99.90;;;;;;5025513;28;20022;-68
2021/07/07 07:23:01;;;;;;;1.35;0.80;;;18.10;99.90;;;;;;5029994;28;20083;-71
2021/07/07 07:25:27;;;;;;;1.30;0.68;;;18.20;99.90;;;;;;5034534;28;20057;-68
2021/07/07 07:27:54;;;;;;;1.63;1.00;;;18.30;99.90;;;;;;5034331;28;20041;-73
2021/07/07 07:30:20;;;;;;;1.38;0.90;;;18.30;99.90;;;;;;5031495;28;20491;-68
2021/07/07 07:32:47;;;;;;;1.30;0.73;;;18.50;99.90;;;;;;5028620;28;20060;-68
2021/07/07 07:35:17;;;;;;;1.02;0.80;;;18.50;99.90;;;;;;5044823;28;20089;-68
2021/07/07 07:37:53;;;;;;;3.05;0.70;;;18.70;99.90;;;;;;5029914;28;20053;-72
2021/07/07 07:40:27;;;;;;;2.35;0.70;;;18.80;99.90;;;;;;5030131;28;20044;-69
2021/07/07 07:42:53;;;;;;;1.98;0.75;;;18.90;99.90;;;;;;5033771;28;20396;-70
2021/07/07 07:45:20;;;;;;;6.68;0.60;;;19.00;99.90;;;;;;5036009;28;20467;-69
2021/07/07 07:47:46;;;;;;;1.45;0.90;;;19.10;99.90;;;;;;5034617;28;20049;-71
2021/07/07 07:50:14;;;;;;;1.73;0.90;;;19.20;99.90;;;;;;5034694;28;20025;-69
2021/07/07 07:52:41;;;;;;;2.00;1.00;;;19.30;99.90;;;;;;5038953;28;20049;-71
2021/07/07 07:55:10;;;;;;;0.63;0.45;;;19.30;99.90;;;;;;5031517;28;20022;-73
2021/07/07 07:57:39;;;;;;;1.75;0.93;;;19.40;99.90;;;;;;5038575;28;20076;-71
2021/07/07 08:00:19;;;;;;;4.47;0.90;;;19.50;99.90;;;;;;5036164;28;20072;-67
2021/07/07 08:02:45;;;;;;;1.00;0.73;;;19.60;99.90;;;;;;5024195;28;20029;-72
2021/07/07 08:05:13;;;;;;;2.05;1.02;;;19.70;99.90;;;;;;5034037;28;20105;-71
2021/07/07 08:07:39;;;;;;;0.82;0.52;;;19.80;99.90;;;;;;5034160;28;20044;-68
2021/07/07 08:10:14;;;;;;;1.25;0.93;;;19.80;99.90;;;;;;5032609;28;20064;-71
2021/07/07 08:12:41;;;;;;;7.40;1.25;;;20.00;99.90;;;;;;5030305;28;20052;-70
2021/07/07 08:15:09;;;;;;;2.35;0.93;;;20.10;99.90;;;;;;5021974;28;20029;-71
2021/07/07 08:17:36;;;;;;;5.78;1.25;;;20.10;99.90;;;;;;5026465;28;20018;-69
2021/07/07 08:20:07;;;;;;;0.98;0.73;;;20.20;99.90;;;;;;5041418;28;20033;-70
2021/07/07 08:22:34;;;;;;;1.25;0.95;;;20.30;99.90;;;;;;5025049;28;20033;-72
2021/07/07 08:25:00;;;;;;;8.13;1.02;;;20.30;99.90;;;;;;5024875;28;20026;-71
2021/07/07 08:27:25;;;;;;;9.32;1.00;;;20.40;99.90;;;;;;5035783;28;20044;-70
2021/07/07 08:29:51;;;;;;;1.00;0.70;;;20.50;99.90;;;;;;5032512;28;20026;-71
2021/07/07 08:32:17;;;;;;;3.85;1.30;;;20.60;99.90;;;;;;5035454;28;20035;-73
2021/07/07 08:34:42;;;;;;;8.00;2.00;;;20.70;99.90;;;;;;5028503;28;20026;-71
2021/07/07 08:37:08;;;;;;;1.20;1.10;;;20.80;99.90;;;;;;5024539;28;20472;-71
2021/07/07 08:39:34;;;;;;;3.17;1.25;;;20.90;99.90;;;;;;5025883;28;20058;-70
2021/07/07 08:41:59;;;;;;;4.30;1.00;;;20.90;99.90;;;;;;5028177;28;20034;-71
2021/07/07 08:44:25;;;;;;;2.15;0.80;;;21.00;99.90;;;;;;5027924;28;20053;-68
2021/07/07 08:46:52;;;;;;;3.20;1.27;;;21.00;99.90;;;;;;5027963;28;20028;-71
2021/07/07 08:49:19;;;;;;;0.88;0.50;;;21.20;99.90;;;;;;5028102;28;20022;-71
2021/07/07 08:51:45;;;;;;;3.63;1.23;;;21.30;99.90;;;;;;5028092;28;20029;-70
2021/07/07 08:54:11;;;;;;;2.85;1.23;;;21.30;99.90;;;;;;5028093;28;20025;-72
2021/07/07 08:56:42;;;;;;;1.52;0.95;;;21.50;99.90;;;;;;5028183;28;20026;-71
2021/07/07 08:59:10;;;;;;;6.70;1.45;;;21.40;99.90;;;;;;5027939;28;20427;-70
2021/07/07 09:02:10;;;;;;;1.77;1.00;;;21.60;99.90;;;;;;5033316;28;20384;-74
2021/07/07 09:04:40;;;;;;;4.50;1.30;;;21.70;99.90;;;;;;5036001;28;20446;-72
2021/07/07 09:07:10;;;;;;;1.13;0.73;;;21.80;99.90;;;;;;5045669;28;20105;-75
2021/07/07 09:09:41;;;;;;;2.28;1.20;;;21.90;99.90;;;;;;5047984;28;20048;-72
2021/07/07 09:12:25;;;;;;;1.58;0.98;;;22.00;99.90;;;;;;5047365;28;20075;-72
2021/07/07 09:15:09;;;;;;;3.17;1.58;;;22.10;99.90;;;;;;5046673;28;20026;-70
2021/07/07 09:17:48;;;;;;;4.35;1.58;;;22.10;99.90;;;;;;5046592;28;20034;-72
2021/07/07 09:20:21;;;;;;;4.18;1.13;;;22.10;99.90;;;;;;5047439;28;20091;-72
2021/07/07 09:22:49;;;;;;;10.13;1.43;;;22.00;99.90;;;;;;5047143;28;20471;-72
2021/07/07 09:25:18;;;;;;;4.20;1.40;;;22.00;99.90;;;;;;5047404;28;20291;-69
2021/07/07 09:27:44;;;;;;;2.28;1.27;;;22.10;99.90;;;;;;5046918;28;20041;-71
2021/07/07 09:30:13;;;;;;;0.93;0.70;;;22.20;99.90;;;;;;5046620;28;20034;-71
2021/07/07 09:32:51;;;;;;;2.70;1.02;;;22.40;99.90;;;;;;5040558;28;20086;-72
2021/07/07 09:35:19;;;;;;;2.40;1.35;;;22.60;99.90;;;;;;5027021;28;20029;-71
2021/07/07 09:37:54;;;;;;;1.48;0.85;;;22.70;99.90;;;;;;5026467;28;20078;-70
2021/07/07 09:40:20;;;;;;;4.63;0.60;;;22.80;99.90;;;;;;5026796;28;20101;-73
2021/07/07 09:42:47;;;;;;;1.58;0.60;;;22.90;99.90;;;;;;5026422;28;20489;-69
2021/07/07 09:45:21;;;;;;;1.85;0.82;;;23.00;99.90;;;;;;5026613;28;20037;-73
2021/07/07 09:47:47;;;;;;;2.80;0.90;;;23.00;99.90;;;;;;5026618;28;20061;-75
2021/07/07 09:50:15;;;;;;;4.32;1.17;;;23.10;99.90;;;;;;5024692;28;20059;-73
2021/07/07 09:52:42;;;;;;;2.53;1.05;;;23.20;99.90;;;;;;5026374;28;20025;-73
2021/07/07 09:55:09;;;;;;;1.27;0.75;;;23.50;99.90;;;;;;5025095;28;20030;-74
2021/07/07 09:57:48;;;;;;;4.00;0.95;;;23.70;99.90;;;;;;5026407;28;20025;-72
2021/07/07 10:00:16;;;;;;;6.90;1.30;;;23.70;99.90;;;;;;5040446;28;20463;-75
2021/07/07 10:02:43;;;;;;;0.88;0.68;;;23.70;99.90;;;;;;5044453;28;20101;-72
2021/07/07 10:05:14;;;;;;;6.07;1.00;;;23.50;99.90;;;;;;5044836;28;20105;-73
2021/07/07 10:07:42;;;;;;;2.67;0.85;;;23.40;99.90;;;;;;5045894;28;20033;-71
2021/07/07 10:10:09;;;;;;;1.65;0.85;;;23.30;99.90;;;;;;5046104;28;20148;-74
2021/07/07 10:12:36;;;;;;;1.90;0.80;;;23.20;99.90;;;;;;5045046;28;20104;-71
2021/07/07 10:15:02;;;;;;;3.60;1.55;;;23.20;99.90;;;;;;5046196;28;20033;-70
2021/07/07 10:17:27;;;;;;;1.75;1.27;;;23.30;99.90;;;;;;5046300;28;20033;-70
2021/07/07 10:20:00;;;;;;;4.35;1.02;;;23.30;99.90;;;;;;5043660;28;20481;-71
2021/07/07 10:22:26;;;;;;;11.68;1.00;;;23.40;99.90;;;;;;5038095;28;20083;-70
2021/07/07 10:24:52;;;;;;;2.90;0.95;;;23.40;99.90;;;;;;5026709;28;20480;-73
2021/07/07 10:27:19;;;;;;;1.80;1.00;;;23.30;99.90;;;;;;5026317;28;20483;-72
2021/07/07 10:29:46;;;;;;;3.42;1.08;;;23.30;99.90;;;;;;5026050;28;20026;-69
2021/07/07 10:32:15;;;;;;;13.50;1.13;;;23.30;99.90;;;;;;5024794;28;20026;-71
2021/07/07 10:34:41;;;;;;;2.10;0.90;;;23.40;99.90;;;;;;5024837;28;20033;-72
2021/07/07 10:37:07;;;;;;;6.80;1.35;;;23.60;99.90;;;;;;5025943;28;20038;-72
2021/07/07 10:39:33;;;;;;;0.80;0.57;;;23.80;99.90;;;;;;5023758;28;20033;-71
2021/07/07 10:42:02;;;;;;;0.80;0.68;;;23.70;99.90;;;;;;5024158;28;20047;-70
2021/07/07 10:44:38;;;;;;;1.25;0.80;;;23.70;99.90;;;;;;5024250;28;20037;-73
2021/07/07 10:47:12;;;;;;;8.45;1.10;;;23.60;99.90;;;;;;5022944;28;20454;-70
2021/07/07 10:49:50;;;;;;;1.70;1.10;;;23.50;99.90;;;;;;5024516;28;20026;-74
2021/07/07 10:52:34;;;;;;;4.57;0.77;;;23.50;99.90;;;;;;5024398;28;20060;-73
2021/07/07 10:55:02;;;;;;;1.20;0.82;;;23.40;99.90;;;;;;5025851;28;20056;-70
2021/07/07 10:57:35;;;;;;;3.05;0.88;;;23.40;99.90;;;;;;5025547;28;20021;-71
2021/07/07 11:00:06;;;;;;;4.87;1.40;;;23.40;99.90;;;;;;5024693;28;20028;-70
2021/07/07 11:02:32;;;;;;;7.43;1.40;;;23.50;99.90;;;;;;5024758;28;20038;-68
2021/07/07 11:05:02;;;;;;;4.20;1.30;;;23.70;99.90;;;;;;5025203;28;20035;-67
2021/07/07 11:07:41;;;;;;;3.17;1.45;;;24.00;99.90;;;;;;5025705;28;20105;-70
2021/07/07 11:10:12;;;;;;;9.65;1.25;;;24.40;99.90;;;;;;5025747;28;20026;-70
2021/07/07 11:12:40;;;;;;;2.10;0.93;;;24.70;99.90;;;;;;5024222;28;20053;-73
2021/07/07 11:15:16;;;;;;;3.75;1.27;;;24.80;99.90;;;;;;5024689;28;20376;-73
2021/07/07 11:17:53;;;;;;;3.47;1.27;;;24.60;99.90;;;;;;5025470;28;20041;-72
2021/07/07 11:20:24;;;;;;;2.42;0.85;;;24.40;99.90;;;;;;5024111;28;20034;-73
2021/07/07 11:23:04;;;;;;;9.60;1.65;;;24.30;99.90;;;;;;5023918;28;20099;-71
2021/07/07 11:25:31;;;;;;;1.98;0.95;;;24.40;99.90;;;;;;5025556;28;20028;-75
2021/07/07 11:27:58;;;;;;;8.07;1.40;;;24.40;99.90;;;;;;5025334;28;20037;-73
2021/07/07 11:30:24;;;;;;;2.90;1.10;;;24.30;99.90;;;;;;5025323;28;20034;-68
2021/07/07 11:32:54;;;;;;;2.10;0.98;;;24.20;99.90;;;;;;5025428;28;20030;-72
2021/07/07 11:35:36;;;;;;;3.25;1.30;;;24.10;99.90;;;;;;5040078;28;20030;-69
2021/07/07 11:38:02;;;;;;;2.45;0.95;;;23.90;99.90;;;;;;5025493;28;20087;-68
2021/07/07 11:40:31;;;;;;;1.67;0.90;;;23.90;99.90;;;;;;5025257;28;20086;-71
2021/07/07 11:43:05;;;;;;;7.22;1.27;;;23.90;99.90;;;;;;5025207;28;20076;-72
2021/07/07 11:45:35;;;;;;;5.00;1.38;;;24.00;99.90;;;;;;5025431;28;20037;-71
2021/07/07 11:48:15;;;;;;;3.42;1.13;;;24.20;99.90;;;;;;5025265;28;20472;-71
2021/07/07 11:50:48;;;;;;;4.53;0.93;;;24.60;99.90;;;;;;5024989;28;20036;-72
2021/07/07 11:53:14;;;;;;;2.40;0.70;;;25.10;99.90;;;;;;5024985;28;20118;-72
2021/07/07 11:55:53;;;;;;;0.95;0.68;;;25.10;99.90;;;;;;5024977;28;20022;-70
2021/07/07 11:58:25;;;;;;;1.65;1.30;;;25.00;99.90;;;;;;5024863;28;20065;-71
2021/07/07 12:00:53;;;;;;;1.77;1.05;;;24.80;99.90;;;;;;5023632;28;20033;-72
2021/07/07 12:03:20;;;;;;;2.85;1.13;;;24.60;99.90;;;;;;5024836;28;20034;-71
2021/07/07 12:05:55;;;;;;;1.50;0.70;;;24.50;99.90;;;;;;5024866;28;20022;-71
2021/07/07 12:08:23;;;;;;;4.53;1.23;;;24.40;99.90;;;;;;5024779;28;20042;-69
2021/07/07 12:10:50;;;;;;;1.70;0.70;;;24.30;99.90;;;;;;5024544;28;20048;-72
2021/07/07 12:13:19;;;;;;;4.03;1.25;;;24.50;99.90;;;;;;5025421;28;20060;-74
2021/07/07 12:15:45;;;;;;;1.88;1.08;;;24.70;99.90;;;;;;5028705;28;20022;-70
2021/07/07 12:18:22;;;;;;;3.08;0.98;;;25.20;99.90;;;;;;5028789;28;20034;-72
2021/07/07 12:20:48;;;;;;;2.00;0.63;;;25.70;99.90;;;;;;5027668;28;20097;-70
2021/07/07 12:23:14;;;;;;;3.63;0.82;;;26.00;99.90;;;;;;5028799;28;20034;-71
2021/07/07 12:25:39;;;;;;;1.48;0.63;;;26.20;99.90;;;;;;5043865;28;20157;-73
2021/07/07 12:28:05;;;;;;;4.70;1.23;;;26.40;99.90;;;;;;5028830;28;20046;-74
2021/07/07 12:30:30;;;;;;;1.10;0.73;;;26.40;99.90;;;;;;5028801;28;20057;-70
2021/07/07 12:32:56;;;;;;;4.68;0.68;;;26.00;99.90;;;;;;5028506;28;20030;-70
2021/07/07 12:35:24;;;;;;;1.40;0.63;;;25.70;99.90;;;;;;5028232;28;20527;-71
2021/07/07 12:37:50;;;;;;;8.00;1.08;;;25.30;99.90;;;;;;5028647;28;20087;-72
2021/07/07 12:40:21;;;;;;;5.18;1.60;;;25.10;99.90;;;;;;5028435;28;20148;-73
2021/07/07 12:42:51;;;;;;;2.72;0.90;;;24.90;99.90;;;;;;5028549;28;20379;-72
2021/07/07 12:45:17;;;;;;;2.50;0.95;;;24.80;99.90;;;;;;5027143;28;20029;-74
2021/07/07 12:47:46;;;;;;;2.35;0.90;;;24.80;99.90;;;;;;5043658;28;20049;-72